createdAt,value
2024-05-09T00:01:03.250Z,100874.47
2024-05-09T00:02:06.397Z,100873.38
2024-05-09T00:03:12.285Z,100872.50
2024-05-09T00:04:16.128Z,100875.89
2024-05-09T00:05:21.640Z,100867.95
2024-05-09T00:06:25.251Z,100875.80
2024-05-09T00:07:27.919Z,100877.53
2024-05-09T00:08:30.572Z,100873.78
2024-05-09T00:09:33.881Z,100872.84
2024-05-09T00:10:39.986Z,100872.69
2024-05-09T00:11:43.097Z,100877.94
2024-05-09T00:12:47.628Z,100870.77
2024-05-09T00:13:52.575Z,100874.19
2024-05-09T00:14:58.225Z,100877.70
2024-05-09T00:16:02.300Z,100880.27
2024-05-09T00:18:27.629Z,100875.78
2024-05-09T00:19:32.155Z,100877.52
2024-05-09T00:20:42.615Z,100875.69
2024-05-09T00:21:55.583Z,100876.41
2024-05-09T00:22:57.801Z,100878.14
2024-05-09T00:24:03.731Z,100880.66
2024-05-09T00:25:06.725Z,100882.40
2024-05-09T00:26:09.404Z,100885.05
2024-05-09T00:27:13.596Z,100883.31
2024-05-09T00:28:17.475Z,100879.65
2024-05-09T00:29:21.153Z,100880.56
2024-05-09T00:30:34.134Z,100888.52
2024-05-09T00:31:33.077Z,100885.05
2024-05-09T00:32:41.485Z,100879.65
2024-05-09T00:33:46.325Z,100882.35
2024-05-09T00:34:53.218Z,100881.38
2024-05-09T00:35:58.497Z,100888.52
2024-05-09T00:37:05.035Z,100896.53
2024-05-09T00:38:08.551Z,100890.31
2024-05-09T00:39:12.155Z,100896.53
2024-05-09T00:40:22.872Z,100890.36
2024-05-09T00:41:21.581Z,100892.14
2024-05-09T00:42:24.387Z,100893.92
2024-05-09T00:43:28.079Z,100896.58
2024-05-09T00:44:32.450Z,100896.58
2024-05-09T00:45:36.831Z,100897.58
2024-05-09T00:46:40.606Z,100893.23
2024-05-09T00:47:45.134Z,100902.06
2024-05-09T00:48:52.870Z,100893.23
2024-05-09T00:50:00.935Z,100895.02
2024-05-09T00:51:07.159Z,100898.59
2024-05-09T00:52:12.276Z,100891.70
2024-05-09T00:53:18.252Z,100894.34
2024-05-09T00:54:25.935Z,100905.77
2024-05-09T00:55:29.793Z,100906.69
2024-05-09T00:56:34.829Z,100905.92
2024-05-09T00:57:40.660Z,100912.22
2024-05-09T00:58:46.245Z,100903.44
2024-05-09T00:59:49.653Z,100912.31
2024-05-09T01:00:52.809Z,100910.53
2024-05-09T01:02:03.677Z,100908.94
2024-05-09T01:03:06.383Z,100913.55
2024-05-09T01:04:11.619Z,100913.59
2024-05-09T01:05:16.796Z,100912.72
2024-05-09T01:06:22.365Z,100915.37
2024-05-09T01:07:28.070Z,100912.77
2024-05-09T01:08:30.959Z,100918.94
2024-05-09T01:09:35.969Z,100912.91
2024-05-09T01:10:42.842Z,100912.81
2024-05-09T01:11:44.869Z,100913.64
2024-05-09T01:12:49.394Z,100918.21
2024-05-09T01:13:53.212Z,100920.86
2024-05-09T01:14:59.374Z,100919.17
2024-05-09T01:16:04.519Z,100915.70
2024-05-09T01:17:09.014Z,100907.83
2024-05-09T01:18:18.421Z,100918.52
2024-05-09T01:19:28.063Z,100916.88
2024-05-09T01:20:40.880Z,100919.48
2024-05-09T01:21:41.134Z,100909.84
2024-05-09T01:22:47.696Z,100918.70
2024-05-09T01:23:51.247Z,100919.66
2024-05-09T01:24:56.894Z,100921.56
2024-05-09T01:26:00.190Z,100918.95
2024-05-09T01:27:04.946Z,100917.27
2024-05-09T01:28:11.602Z,100918.22
2024-05-09T01:29:16.054Z,100923.48
2024-05-09T01:30:34.684Z,100919.09
2024-05-09T01:31:34.488Z,100922.70
2024-05-09T01:32:47.935Z,100916.73
2024-05-09T01:33:52.267Z,100924.69
2024-05-09T01:34:54.684Z,100915.91
2024-05-09T01:35:57.510Z,100919.52
2024-05-09T01:37:01.707Z,100918.73
2024-05-09T01:38:09.399Z,100917.91
2024-05-09T01:39:15.184Z,100918.87
2024-05-09T01:40:28.684Z,100921.47
2024-05-09T01:41:42.544Z,100920.80
2024-05-09T01:42:50.699Z,100927.80
2024-05-09T01:43:57.850Z,100918.98
2024-05-09T01:45:11.728Z,100923.47
2024-05-09T01:46:17.569Z,100927.94
2024-05-09T01:47:21.355Z,100933.31
2024-05-09T01:48:27.528Z,100920.98
2024-05-09T01:49:35.742Z,100927.35
2024-05-09T01:50:43.158Z,100924.70
2024-05-09T01:51:47.686Z,100923.01
2024-05-09T01:52:50.552Z,100924.75
2024-05-09T01:53:55.688Z,100924.00
2024-05-09T01:55:03.441Z,100924.87
2024-05-09T01:56:08.868Z,100920.64
2024-05-09T01:58:35.960Z,100920.72
2024-05-09T01:59:40.245Z,100933.95
2024-05-09T02:00:44.012Z,100925.15
2024-05-09T02:01:56.692Z,100929.66
2024-05-09T02:02:53.839Z,100929.81
2024-05-09T02:03:57.332Z,100933.30
2024-05-09T02:05:02.158Z,100934.27
2024-05-09T02:06:06.545Z,100940.47
2024-05-09T02:07:10.987Z,100931.75
2024-05-09T02:08:16.843Z,100940.52
2024-05-09T02:09:23.201Z,100936.17
2024-05-09T02:10:32.466Z,100941.50
2024-05-09T02:12:30.866Z,100937.75
2024-05-09T02:13:33.138Z,100941.58
2024-05-09T02:14:35.342Z,100938.94
2024-05-09T02:15:37.612Z,100936.29
2024-05-09T02:16:39.854Z,100938.94
2024-05-09T02:17:42.509Z,100952.20
2024-05-09T02:18:44.918Z,100946.04
2024-05-09T02:19:47.068Z,100952.20
2024-05-09T02:20:49.512Z,100954.89
2024-05-09T02:21:51.850Z,100947.02
2024-05-09T02:22:54.035Z,100952.31
2024-05-09T02:23:56.082Z,100958.44
2024-05-09T02:24:58.410Z,100955.80
2024-05-09T02:26:00.663Z,100960.25
2024-05-09T02:27:03.059Z,100959.31
2024-05-09T02:28:05.544Z,100965.47
2024-05-09T02:29:07.648Z,100960.18
2024-05-09T02:30:18.777Z,100959.31
2024-05-09T02:31:15.267Z,100964.71
2024-05-09T02:32:17.542Z,100955.91
2024-05-09T02:33:19.766Z,100968.23
2024-05-09T02:34:22.478Z,100964.71
2024-05-09T02:35:26.039Z,100965.62
2024-05-09T02:36:28.413Z,100969.02
2024-05-09T02:37:31.015Z,100969.13
2024-05-09T02:38:33.157Z,100966.48
2024-05-09T02:39:35.762Z,100970.88
2024-05-09T02:40:39.667Z,100973.55
2024-05-09T02:41:42.390Z,100975.33
2024-05-09T02:42:44.487Z,100973.52
2024-05-09T02:43:46.760Z,100965.58
2024-05-09T02:44:48.966Z,100976.96
2024-05-09T02:45:51.239Z,100978.77
2024-05-09T02:46:53.696Z,100981.34
2024-05-09T02:47:55.947Z,100982.22
2024-05-09T02:48:58.685Z,100976.16
2024-05-09T02:50:00.996Z,100979.61
2024-05-09T02:51:03.801Z,100976.05
2024-05-09T02:52:06.333Z,100979.68
2024-05-09T02:53:09.688Z,100978.77
2024-05-09T02:54:12.236Z,100976.96
2024-05-09T02:55:14.370Z,100975.26
2024-05-09T02:56:16.717Z,100974.31
2024-05-09T02:57:18.896Z,100979.75
2024-05-09T02:58:20.944Z,100977.98
2024-05-09T02:59:23.123Z,100982.44
2024-05-09T03:00:34.564Z,100993.05
2024-05-09T03:01:29.643Z,100988.59
2024-05-09T03:02:32.047Z,100992.19
2024-05-09T03:03:34.549Z,100996.50
2024-05-09T03:04:38.415Z,100991.31
2024-05-09T03:05:42.606Z,100995.63
2024-05-09T03:06:45.053Z,100990.30
2024-05-09T03:07:47.496Z,100991.24
2024-05-09T03:08:49.777Z,100995.66
2024-05-09T03:09:52.003Z,101004.44
2024-05-09T03:10:54.632Z,101004.44
2024-05-09T03:11:57.195Z,100997.33
2024-05-09T03:12:59.594Z,100999.94
2024-05-09T03:14:02.106Z,101005.16
2024-05-09T03:15:05.060Z,101004.25
2024-05-09T03:16:07.504Z,101009.66
2024-05-09T03:17:09.683Z,101012.19
2024-05-09T03:18:13.084Z,101006.94
2024-05-09T03:19:15.761Z,101009.66
2024-05-09T03:20:23.694Z,101009.55
2024-05-09T03:21:22.128Z,101003.34
2024-05-09T03:22:25.703Z,101003.38
2024-05-09T03:23:28.648Z,101014.84
2024-05-09T03:24:30.821Z,101011.25
2024-05-09T03:25:35.476Z,101006.83
2024-05-09T03:26:37.912Z,101009.47
2024-05-09T03:27:40.189Z,101005.95
2024-05-09T03:28:43.066Z,101017.38
2024-05-09T03:29:45.422Z,101008.48
2024-05-09T03:30:47.588Z,101004.94
2024-05-09T03:31:49.903Z,101007.58
2024-05-09T03:32:52.208Z,101018.09
2024-05-09T03:33:54.726Z,101014.50
2024-05-09T03:34:57.204Z,101013.66
2024-05-09T03:35:59.420Z,101016.24
2024-05-09T03:37:01.769Z,101017.07
2024-05-09T03:38:04.448Z,101006.52
2024-05-09T03:39:11.742Z,101007.31
2024-05-09T03:40:20.475Z,101017.87
2024-05-09T03:41:21.389Z,101013.41
2024-05-09T03:42:23.757Z,101014.27
2024-05-09T03:43:26.199Z,101019.56
2024-05-09T03:44:28.452Z,101012.45
2024-05-09T03:45:30.944Z,101010.64
2024-05-09T03:46:39.841Z,101007.99
2024-05-09T03:47:42.338Z,101015.86
2024-05-09T03:48:44.929Z,101009.58
2024-05-09T03:49:47.244Z,101013.97
2024-05-09T03:50:49.930Z,101017.48
2024-05-09T03:51:52.209Z,101016.58
2024-05-09T03:52:54.678Z,101013.92
2024-05-09T03:53:57.452Z,101015.70
2024-05-09T03:55:01.315Z,101018.28
2024-05-09T03:56:07.041Z,101019.22
2024-05-09T03:57:09.244Z,101020.96
2024-05-09T03:58:11.831Z,101019.19
2024-05-09T03:59:14.263Z,101023.57
2024-05-09T04:00:22.567Z,101025.31
2024-05-09T04:01:21.272Z,101021.75
2024-05-09T04:02:23.621Z,101018.28
2024-05-09T04:03:26.530Z,101024.44
2024-05-09T04:04:28.956Z,101020.96
2024-05-09T04:05:31.904Z,101024.52
2024-05-09T04:06:34.897Z,101025.42
2024-05-09T04:07:37.355Z,101020.13
2024-05-09T04:08:39.778Z,101026.25
2024-05-09T04:09:42.165Z,101028.86
2024-05-09T04:10:45.091Z,101026.18
2024-05-09T04:11:47.204Z,101031.33
2024-05-09T04:12:49.475Z,101031.28
2024-05-09T04:13:51.597Z,101040.05
2024-05-09T04:14:54.139Z,101032.94
2024-05-09T04:15:56.282Z,101027.64
2024-05-09T04:16:58.916Z,101032.03
2024-05-09T04:18:01.918Z,101032.89
2024-05-09T04:19:04.943Z,101035.55
2024-05-09T04:20:10.573Z,101035.55
2024-05-09T04:21:12.590Z,101035.50
2024-05-09T04:22:14.846Z,101030.09
2024-05-09T04:23:17.030Z,101038.00
2024-05-09T04:24:19.161Z,101037.09
2024-05-09T04:25:23.206Z,101031.75
2024-05-09T04:26:25.703Z,101037.92
2024-05-09T04:27:27.758Z,101036.14
2024-05-09T04:28:30.091Z,101036.10
2024-05-09T04:29:32.442Z,101037.84
2024-05-09T04:30:38.921Z,101034.28
2024-05-09T04:31:38.731Z,101037.84
2024-05-09T04:32:40.954Z,101034.28
2024-05-09T04:33:43.309Z,101036.92
2024-05-09T04:34:45.741Z,101044.00
2024-05-09T04:35:47.938Z,101040.48
2024-05-09T04:36:50.150Z,101035.23
2024-05-09T04:37:52.133Z,101041.40
2024-05-09T04:38:54.221Z,101044.80
2024-05-09T04:39:56.386Z,101041.19
2024-05-09T04:40:59.150Z,101038.47
2024-05-09T04:42:02.158Z,101035.82
2024-05-09T04:43:05.471Z,101046.42
2024-05-09T04:44:08.528Z,101046.42
2024-05-09T04:45:11.194Z,101039.38
2024-05-09T04:46:14.289Z,101045.55
2024-05-09T04:47:17.033Z,101041.08
2024-05-09T04:48:19.435Z,101043.73
2024-05-09T04:49:22.223Z,101046.38
2024-05-09T04:50:33.899Z,101053.38
2024-05-09T04:51:28.468Z,101054.20
2024-05-09T04:52:30.525Z,101047.13
2024-05-09T04:53:33.163Z,101050.60
2024-05-09T04:54:36.617Z,101056.73
2024-05-09T04:55:40.317Z,101054.95
2024-05-09T04:56:43.312Z,101054.95
2024-05-09T04:57:45.841Z,101047.91
2024-05-09T04:58:48.164Z,101048.73
2024-05-09T04:59:51.781Z,101052.30
2024-05-09T05:00:54.022Z,101053.09
2024-05-09T05:01:56.254Z,101047.80
2024-05-09T05:02:58.571Z,101050.40
2024-05-09T05:04:00.984Z,101055.66
2024-05-09T05:05:03.830Z,101048.58
2024-05-09T05:06:06.695Z,101051.19
2024-05-09T05:07:08.888Z,101052.06
2024-05-09T05:08:12.572Z,101046.75
2024-05-09T05:09:15.215Z,101055.53
2024-05-09T05:10:25.273Z,101059.05
2024-05-09T05:11:21.967Z,101066.09
2024-05-09T05:12:24.294Z,101056.31
2024-05-09T05:13:32.812Z,101058.06
2024-05-09T05:14:34.984Z,101060.66
2024-05-09T05:15:36.944Z,101056.16
2024-05-09T05:16:39.137Z,101060.59
2024-05-09T05:17:41.914Z,101057.03
2024-05-09T05:18:44.446Z,101061.42
2024-05-09T05:19:47.137Z,101055.16
2024-05-09T05:20:50.122Z,101053.38
2024-05-09T05:21:52.156Z,101055.95
2024-05-09T05:22:54.468Z,101062.08
2024-05-09T05:23:56.847Z,101063.77
2024-05-09T05:24:59.018Z,101061.05
2024-05-09T05:26:08.707Z,101065.43
2024-05-09T05:27:10.577Z,101068.08
2024-05-09T05:28:18.313Z,101061.78
2024-05-09T05:29:23.758Z,101073.21
2024-05-09T05:30:34.299Z,101071.39
2024-05-09T05:31:33.981Z,101070.43
2024-05-09T05:32:40.467Z,101073.83
2024-05-09T05:33:43.275Z,101077.30
2024-05-09T05:34:47.674Z,101075.48
2024-05-09T05:35:50.942Z,101078.96
2024-05-09T05:36:56.818Z,101072.74
2024-05-09T05:38:00.254Z,101070.91
2024-05-09T05:39:06.239Z,101076.12
2024-05-09T05:40:17.444Z,101076.88
2024-05-09T05:41:16.160Z,101078.56
2024-05-09T05:42:22.005Z,101074.95
2024-05-09T05:43:27.950Z,101075.83
2024-05-09T05:44:30.551Z,101074.87
2024-05-09T05:45:33.465Z,101074.78
2024-05-09T05:46:38.797Z,101068.48
2024-05-09T05:47:43.452Z,101068.38
2024-05-09T05:48:46.796Z,101072.73
2024-05-09T05:49:53.290Z,101074.42
2024-05-09T05:51:04.198Z,101071.68
2024-05-09T05:52:06.459Z,101074.20
2024-05-09T05:53:10.918Z,101073.24
2024-05-09T05:54:22.028Z,101077.59
2024-05-09T05:55:30.900Z,101077.54
2024-05-09T05:56:34.825Z,101080.10
2024-05-09T05:57:38.967Z,101078.27
2024-05-09T05:58:44.991Z,101075.44
2024-05-09T05:59:50.251Z,101080.66
2024-05-09T06:00:53.499Z,101079.64
2024-05-09T06:01:56.605Z,101077.80
2024-05-09T06:03:02.171Z,101075.94
2024-05-09T06:04:11.906Z,101075.84
2024-05-09T06:05:16.885Z,101077.58
2024-05-09T06:06:19.774Z,101080.14
2024-05-09T06:07:24.327Z,101077.39
2024-05-09T06:08:30.434Z,101078.16
2024-05-09T06:09:36.814Z,101071.84
2024-05-09T06:10:41.502Z,101075.22
2024-05-09T06:11:48.117Z,101074.25
2024-05-09T06:12:53.552Z,101070.58
2024-05-09T06:13:56.752Z,101066.97
2024-05-09T06:15:02.399Z,101073.05
2024-05-09T06:16:07.829Z,101072.08
2024-05-09T06:17:12.327Z,101075.48
2024-05-09T06:18:17.542Z,101074.52
2024-05-09T06:19:24.430Z,101071.73
2024-05-09T06:20:36.447Z,101070.70
2024-05-09T06:21:37.574Z,101075.97
2024-05-09T06:22:41.957Z,101075.86
2024-05-09T06:23:51.064Z,101076.59
2024-05-09T06:24:55.694Z,101074.80
2024-05-09T06:26:01.440Z,101072.97
2024-05-09T06:27:04.950Z,101071.94
2024-05-09T06:28:09.429Z,101079.86
2024-05-09T06:29:12.890Z,101084.15
2024-05-09T06:30:25.646Z,101073.38
2024-05-09T06:31:22.673Z,101076.86
2024-05-09T06:32:27.169Z,101073.17
2024-05-09T06:33:34.654Z,101077.62
2024-05-09T06:34:40.382Z,101073.93
2024-05-09T06:35:45.656Z,101077.31
2024-05-09T06:36:50.370Z,101076.39
2024-05-09T06:37:56.272Z,101068.31
2024-05-09T06:38:58.627Z,101075.36
2024-05-09T06:40:02.305Z,101078.73
2024-05-09T06:41:07.837Z,101069.02
2024-05-09T06:42:14.059Z,101076.02
2024-05-09T06:43:19.525Z,101075.96
2024-05-09T06:44:23.886Z,101063.45
2024-05-09T06:45:28.856Z,101082.77
2024-05-09T06:46:32.253Z,101074.73
2024-05-09T06:47:36.820Z,101078.96
2024-05-09T06:48:40.386Z,101075.23
2024-05-09T06:49:47.038Z,101076.86
2024-05-09T06:50:55.114Z,101078.48
2024-05-09T06:51:57.375Z,101080.22
2024-05-09T06:53:01.546Z,101074.75
2024-05-09T06:54:07.652Z,101085.28
2024-05-09T06:55:09.870Z,101087.89
2024-05-09T06:56:13.172Z,101087.83
2024-05-09T06:57:15.696Z,101084.19
2024-05-09T06:58:17.957Z,101086.79
2024-05-09T06:59:20.130Z,101088.37
2024-05-09T07:00:27.648Z,101082.94
2024-05-09T07:01:26.534Z,101082.83
2024-05-09T07:02:29.054Z,101082.71
2024-05-09T07:03:31.361Z,101081.67
2024-05-09T07:05:26.915Z,101077.52
2024-05-09T07:06:29.512Z,101076.89
2024-05-09T07:07:31.985Z,101078.51
2024-05-09T07:08:34.682Z,101081.11
2024-05-09T07:09:36.848Z,101077.43
2024-05-09T07:10:38.989Z,101076.50
2024-05-09T07:11:41.414Z,101081.59
2024-05-09T07:12:43.776Z,101077.88
2024-05-09T07:13:46.297Z,101077.73
2024-05-09T07:14:48.375Z,101077.48
2024-05-09T07:15:50.726Z,101079.26
2024-05-09T07:16:53.064Z,101077.28
2024-05-09T07:17:56.828Z,101076.26
2024-05-09T07:19:00.067Z,101076.08
2024-05-09T07:20:03.050Z,101080.47
2024-05-09T07:21:06.121Z,101083.08
2024-05-09T07:22:09.382Z,101081.28
2024-05-09T07:23:12.088Z,101072.30
2024-05-09T07:24:14.214Z,101079.20
2024-05-09T07:25:16.478Z,101080.94
2024-05-09T07:26:18.814Z,101077.34
2024-05-09T07:27:21.002Z,101079.82
2024-05-09T07:28:23.296Z,101078.70
2024-05-09T07:29:25.437Z,101083.88
2024-05-09T07:30:33.243Z,101088.09
2024-05-09T07:31:31.818Z,101074.58
2024-05-09T07:32:33.977Z,101081.41
2024-05-09T07:33:36.209Z,101075.02
2024-05-09T07:34:38.750Z,101071.42
2024-05-09T07:35:41.008Z,101073.03
2024-05-09T07:36:43.689Z,101077.27
2024-05-09T07:37:45.936Z,101081.54
2024-05-09T07:38:48.230Z,101067.15
2024-05-09T07:39:50.672Z,101073.41
2024-05-09T07:40:52.889Z,101071.48
2024-05-09T07:41:55.155Z,101067.78
2024-05-09T07:42:57.331Z,101069.52
2024-05-09T07:43:59.646Z,101071.12
2024-05-09T07:45:21.038Z,101068.19
2024-05-09T07:47:04.521Z,101068.05
2024-05-09T07:48:14.325Z,101064.29
2024-05-09T07:49:44.789Z,101071.28
2024-05-09T07:51:31.599Z,101067.69
2024-05-09T07:53:32.726Z,101067.19
2024-05-09T07:53:44.252Z,101065.45
2024-05-09T07:54:45.356Z,101067.19
2024-05-09T07:55:47.856Z,101063.44
2024-05-09T07:56:50.467Z,101062.38
2024-05-09T07:57:52.835Z,101070.31
2024-05-09T07:58:55.021Z,101065.04
2024-05-09T07:59:57.323Z,101065.04
2024-05-09T08:00:59.924Z,101063.17
2024-05-09T08:02:02.319Z,101067.41
2024-05-09T08:03:04.935Z,101066.33
2024-05-09T08:04:07.177Z,101070.59
2024-05-09T08:05:10.058Z,101066.05
2024-05-09T08:06:12.552Z,101069.48
2024-05-09T08:07:15.183Z,101062.17
2024-05-09T08:09:22.264Z,101064.89
2024-05-09T08:10:28.578Z,101073.19
2024-05-09T08:11:28.404Z,101068.64
2024-05-09T08:12:30.629Z,101075.72
2024-05-09T08:13:32.814Z,101069.37
2024-05-09T08:14:35.050Z,101069.37
2024-05-09T08:15:37.271Z,101067.49
2024-05-09T08:16:39.511Z,101065.69
2024-05-09T08:17:42.018Z,101070.96
2024-05-09T08:18:44.144Z,101058.38
2024-05-09T08:19:46.504Z,101062.70
2024-05-09T08:20:48.933Z,101060.83
2024-05-09T08:21:51.504Z,101063.50
2024-05-09T08:22:54.124Z,101059.02
2024-05-09T08:23:56.536Z,101066.89
2024-05-09T08:24:58.559Z,101062.41
2024-05-09T08:26:01.162Z,101057.80
2024-05-09T08:27:03.857Z,101065.73
2024-05-09T08:28:06.785Z,101062.81
2024-05-09T08:29:09.406Z,101063.53
2024-05-09T08:30:21.321Z,101058.13
2024-05-09T08:31:16.168Z,101059.78
2024-05-09T08:32:18.577Z,101054.26
2024-05-09T08:33:21.151Z,101059.38
2024-05-09T08:34:23.532Z,101059.45
2024-05-09T08:35:26.101Z,101067.25
2024-05-09T08:36:28.973Z,101051.22
2024-05-09T08:37:36.628Z,101054.11
2024-05-09T08:38:35.576Z,101053.97
2024-05-09T08:39:38.032Z,101055.62
2024-05-09T08:40:41.393Z,101054.61
2024-05-09T08:41:47.437Z,101053.66
2024-05-09T08:42:50.979Z,101060.74
2024-05-09T08:43:53.759Z,101046.41
2024-05-09T08:44:56.199Z,101042.65
2024-05-09T08:45:59.203Z,101031.80
2024-05-09T08:47:02.634Z,101034.25
2024-05-09T08:48:11.268Z,101040.28
2024-05-09T08:49:15.873Z,101034.78
2024-05-09T08:50:31.424Z,101034.55
2024-05-09T08:51:25.503Z,101034.33
2024-05-09T08:52:27.880Z,101042.16
2024-05-09T08:53:30.110Z,101039.33
2024-05-09T08:54:32.662Z,101039.97
2024-05-09T08:55:37.353Z,101036.35
2024-05-09T08:56:43.941Z,101033.52
2024-05-09T08:57:46.870Z,101035.41
2024-05-09T08:58:50.894Z,101033.25
2024-05-09T08:59:54.206Z,101037.50
2024-05-09T09:00:57.652Z,101031.13
2024-05-09T09:02:01.812Z,101036.25
2024-05-09T09:03:07.901Z,101030.82
2024-05-09T09:04:13.379Z,101036.02
2024-05-09T09:05:16.929Z,101033.34
2024-05-09T09:06:21.437Z,101034.13
2024-05-09T09:07:25.978Z,101034.13
2024-05-09T09:08:28.749Z,101030.74
2024-05-09T09:09:32.581Z,101028.94
2024-05-09T09:10:37.343Z,101023.58
2024-05-09T09:11:39.539Z,101028.94
2024-05-09T09:12:41.775Z,101024.45
2024-05-09T09:13:43.888Z,101028.77
2024-05-09T09:14:46.362Z,101027.05
2024-05-09T09:15:52.011Z,101020.67
2024-05-09T09:16:54.482Z,101023.34
2024-05-09T09:17:57.714Z,101020.43
2024-05-09T09:18:59.953Z,101023.11
2024-05-09T09:20:02.946Z,101023.78
2024-05-09T09:21:08.921Z,101020.23
2024-05-09T09:22:12.379Z,101016.37
2024-05-09T09:23:14.832Z,101018.81
2024-05-09T09:24:16.898Z,101012.52
2024-05-09T09:25:22.792Z,101016.92
2024-05-09T09:26:24.942Z,101011.21
2024-05-09T09:27:27.432Z,101010.34
2024-05-09T09:28:29.859Z,101011.83
2024-05-09T09:29:31.845Z,101014.34
2024-05-09T09:30:37.517Z,101008.02
2024-05-09T09:31:38.729Z,101007.84
2024-05-09T09:32:41.063Z,101008.62
2024-05-09T09:33:43.430Z,101013.81
2024-05-09T09:34:47.157Z,101010.20
2024-05-09T09:35:49.254Z,101009.16
2024-05-09T09:36:55.056Z,101009.83
2024-05-09T09:38:00.991Z,101006.20
2024-05-09T09:39:03.824Z,101002.41
2024-05-09T09:40:10.736Z,101011.23
2024-05-09T09:41:16.449Z,101016.41
2024-05-09T09:42:22.076Z,101017.95
2024-05-09T09:43:26.136Z,101014.16
2024-05-09T09:44:34.169Z,101015.71
2024-05-09T09:45:37.432Z,101009.41
2024-05-09T09:46:41.037Z,100998.78
2024-05-09T09:47:44.736Z,100997.91
2024-05-09T09:48:48.251Z,101019.17
2024-05-09T09:49:51.206Z,101008.29
2024-05-09T09:50:56.954Z,101004.62
2024-05-09T09:52:01.128Z,100999.97
2024-05-09T09:53:06.360Z,100999.87
2024-05-09T09:54:11.061Z,101008.52
2024-05-09T09:55:14.281Z,100986.48
2024-05-09T09:56:17.759Z,101001.53
2024-05-09T09:57:22.719Z,101003.51
2024-05-09T09:58:25.793Z,100998.23
2024-05-09T09:59:29.378Z,101004.83
2024-05-09T10:00:34.063Z,100998.33
2024-05-09T10:01:37.794Z,100997.58
2024-05-09T10:02:43.290Z,101002.64
2024-05-09T10:03:45.961Z,100998.06
2024-05-09T10:04:49.628Z,100993.58
2024-05-09T10:05:53.495Z,100998.94
2024-05-09T10:07:02.985Z,100998.94
2024-05-09T10:08:07.398Z,100990.81
2024-05-09T10:09:13.715Z,100993.58
2024-05-09T10:10:31.439Z,100995.13
2024-05-09T10:11:34.889Z,100996.00
2024-05-09T10:12:36.563Z,100986.06
2024-05-09T10:13:40.932Z,100982.31
2024-05-09T10:14:52.956Z,100987.50
2024-05-09T10:15:55.312Z,100996.14
2024-05-09T10:17:04.654Z,100993.31
2024-05-09T10:18:07.151Z,100992.16
2024-05-09T10:19:11.830Z,100988.36
2024-05-09T10:20:21.431Z,100986.45
2024-05-09T10:21:19.649Z,100973.92
2024-05-09T10:22:27.914Z,100988.18
2024-05-09T10:23:33.322Z,100984.72
2024-05-09T10:24:52.514Z,100986.19
2024-05-09T10:26:01.844Z,100991.42
2024-05-09T10:27:04.418Z,100978.80
2024-05-09T10:28:10.327Z,100976.72
2024-05-09T10:29:17.160Z,100977.77
2024-05-09T10:30:29.651Z,100971.92
2024-05-09T10:31:29.801Z,100977.85
2024-05-09T10:32:39.771Z,100982.08
2024-05-09T10:33:47.088Z,100983.63
2024-05-09T10:35:07.422Z,100983.24
2024-05-09T10:36:17.134Z,100976.84
2024-05-09T10:37:19.476Z,100970.16
2024-05-09T10:38:22.954Z,100969.86
2024-05-09T10:39:25.650Z,100961.72
2024-05-09T10:40:31.402Z,100951.00
2024-05-09T10:41:32.995Z,100957.22
2024-05-09T10:42:38.331Z,100957.41
2024-05-09T10:43:42.100Z,100964.50
2024-05-09T10:44:44.284Z,100961.72
2024-05-09T10:45:46.999Z,100969.86
2024-05-09T10:46:49.842Z,100964.41
2024-05-09T10:47:52.249Z,100966.41
2024-05-09T10:48:56.384Z,100964.20
2024-05-09T10:49:58.763Z,100958.34
2024-05-09T10:51:01.644Z,100952.59
2024-05-09T10:52:04.095Z,100946.85
2024-05-09T10:53:06.364Z,100950.16
2024-05-09T10:54:08.441Z,100958.63
2024-05-09T10:55:10.476Z,100961.39
2024-05-09T10:56:15.711Z,100960.70
2024-05-09T10:57:18.339Z,100960.70
2024-05-09T10:58:20.527Z,100958.80
2024-05-09T10:59:23.020Z,100955.09
2024-05-09T11:00:35.997Z,100954.14
2024-05-09T11:01:36.179Z,100963.84
2024-05-09T11:02:38.738Z,100957.23
2024-05-09T11:03:41.826Z,100950.66
2024-05-09T11:04:44.621Z,100954.77
2024-05-09T11:05:47.318Z,100950.19
2024-05-09T11:06:49.712Z,100948.96
2024-05-09T11:07:52.191Z,100948.70
2024-05-09T11:08:56.064Z,100958.16
2024-05-09T11:09:58.454Z,100954.34
2024-05-09T11:11:02.027Z,100950.53
2024-05-09T11:12:05.251Z,100953.77
2024-05-09T11:13:07.462Z,100950.14
2024-05-09T11:14:12.954Z,100952.81
2024-05-09T11:15:15.276Z,100945.64
2024-05-09T11:16:21.187Z,100942.86
2024-05-09T11:17:24.104Z,100946.13
2024-05-09T11:18:30.369Z,100948.05
2024-05-09T11:19:42.010Z,100951.68
2024-05-09T11:20:44.720Z,100946.41
2024-05-09T11:21:51.220Z,100950.63
2024-05-09T11:22:53.323Z,100941.41
2024-05-09T11:23:56.430Z,100944.59
2024-05-09T11:24:58.830Z,100935.41
2024-05-09T11:26:01.382Z,100936.73
2024-05-09T11:27:05.676Z,100939.14
2024-05-09T11:28:08.135Z,100935.41
2024-05-09T11:29:10.336Z,100937.78
2024-05-09T11:30:26.618Z,100935.00
2024-05-09T11:31:22.388Z,100943.91
2024-05-09T11:32:29.755Z,100942.09
2024-05-09T11:33:34.500Z,100940.27
2024-05-09T11:34:39.152Z,100939.22
2024-05-09T11:35:42.242Z,100933.86
2024-05-09T11:36:44.717Z,100935.77
2024-05-09T11:37:47.045Z,100930.22
2024-05-09T11:38:49.168Z,100928.49
2024-05-09T11:39:51.317Z,100930.03
2024-05-09T11:40:53.716Z,100928.85
2024-05-09T11:41:56.845Z,100921.38
2024-05-09T11:42:59.207Z,100922.16
2024-05-09T11:44:01.835Z,100918.52
2024-05-09T11:45:05.476Z,100925.41
2024-05-09T11:46:08.985Z,100926.92
2024-05-09T11:47:11.456Z,100925.95
2024-05-09T11:48:13.967Z,100929.44
2024-05-09T11:49:16.773Z,100927.53
2024-05-09T11:50:27.021Z,100928.48
2024-05-09T11:51:23.390Z,100916.98
2024-05-09T11:52:25.454Z,100920.69
2024-05-09T11:53:27.798Z,100923.59
2024-05-09T11:54:29.817Z,100920.05
2024-05-09T11:55:32.573Z,100918.33
2024-05-09T11:56:34.922Z,100920.23
2024-05-09T11:57:37.181Z,100921.20
2024-05-09T11:58:39.495Z,100918.41
2024-05-09T11:59:41.615Z,100916.78
2024-05-09T12:00:44.413Z,100920.42
2024-05-09T12:01:46.964Z,100919.56
2024-05-09T12:02:49.228Z,100914.10
2024-05-09T12:03:51.988Z,100921.38
2024-05-09T12:04:54.543Z,100920.33
2024-05-09T12:05:57.295Z,100917.45
2024-05-09T12:06:59.885Z,100918.23
2024-05-09T12:08:02.863Z,100913.59
2024-05-09T12:09:05.158Z,100909.09
2024-05-09T12:10:11.846Z,100907.40
2024-05-09T12:11:12.922Z,100912.77
2024-05-09T12:12:15.168Z,100908.93
2024-05-09T12:13:17.366Z,100906.92
2024-05-09T12:14:19.934Z,100912.19
2024-05-09T12:15:22.227Z,100903.38
2024-05-09T12:16:24.962Z,100904.04
2024-05-09T12:17:27.268Z,100900.40